Sharon, Connecticut
Current Conditions -  °F | °C
As of 6:53 AM on Friday 19 Dec 2014 (Local Time) from KPOU Reporting Station
Overcast Overcast  
Wind Chill: 29°   Ceiling: 3600
Heat Index: 35°   Visibility: 10mi
Dew Point: 24°   Wind: 7mph
Humidity: 64%   Direction: 350°N
Pressure: 29.99"   Gusts: NA
Location:  41.88°N, 73.48°W
Report Text: KPOU 191153Z 35006KT 10SM OVC036 02/M04 A2999 RMK AO2 SLP154 T00171044 10028 20017 53014
Loading
Personal Weather Stations






























Interactive Weather Map New forecast layout! Learn more

10-Day Weather Forecast

Advertisements
Track Severe Weather on mobile